createdAt,value
2019-03-19T00:02:07.524Z,1.30
2019-03-19T00:04:34.783Z,1.30
2019-03-19T00:07:02.116Z,1.60
2019-03-19T00:09:29.448Z,1.40
2019-03-19T00:11:57.910Z,1.60
2019-03-19T00:14:25.403Z,1.40
2019-03-19T00:16:52.763Z,1.37
2019-03-19T00:19:22.461Z,1.40
2019-03-19T00:21:49.384Z,1.43
2019-03-19T00:24:16.671Z,1.40
2019-03-19T00:26:44.023Z,1.33
2019-03-19T00:29:11.343Z,1.40
2019-03-19T00:31:38.684Z,1.93
2019-03-19T00:34:05.984Z,1.80
2019-03-19T00:36:33.305Z,1.93
2019-03-19T00:39:00.663Z,1.90
2019-03-19T00:41:28.003Z,3.03
2019-03-19T00:43:55.343Z,3.40
2019-03-19T00:46:22.631Z,3.47
2019-03-19T00:48:49.948Z,3.80
2019-03-19T00:51:17.247Z,4.43
2019-03-19T00:53:44.583Z,4.07
2019-03-19T00:56:11.874Z,2.50
2019-03-19T00:58:39.151Z,2.80
2019-03-19T01:01:06.473Z,2.50
2019-03-19T01:03:33.778Z,2.73
2019-03-19T01:06:01.091Z,2.93
2019-03-19T01:08:28.426Z,3.13
2019-03-19T01:10:56.164Z,3.80
2019-03-19T01:13:23.547Z,3.40
2019-03-19T01:15:50.857Z,3.73
2019-03-19T01:18:18.131Z,3.50
2019-03-19T01:20:45.464Z,3.83
2019-03-19T01:23:12.771Z,3.87
2019-03-19T01:25:54.439Z,3.80
2019-03-19T01:28:09.373Z,3.90
2019-03-19T01:30:36.716Z,3.87
2019-03-19T01:33:04.064Z,4.40
2019-03-19T01:35:31.384Z,4.03
2019-03-19T01:37:58.723Z,3.20
2019-03-19T01:40:26.036Z,3.90
2019-03-19T01:42:53.319Z,4.20
2019-03-19T01:45:20.665Z,4.10
2019-03-19T01:47:47.968Z,4.13
2019-03-19T01:50:15.389Z,3.70
2019-03-19T01:52:42.678Z,4.00
2019-03-19T01:55:10.009Z,3.60
2019-03-19T01:57:37.294Z,3.63
2019-03-19T02:00:05.361Z,3.87
2019-03-19T02:02:32.718Z,3.67
2019-03-19T02:04:59.990Z,3.70
2019-03-19T02:07:27.372Z,3.67
2019-03-19T02:09:54.703Z,3.10
2019-03-19T02:12:22.024Z,3.00
2019-03-19T02:14:49.296Z,2.60
2019-03-19T02:17:16.659Z,2.60
2019-03-19T02:19:44.066Z,2.30
2019-03-19T02:22:11.360Z,2.23
2019-03-19T02:24:38.643Z,3.10
2019-03-19T02:27:05.983Z,3.23
2019-03-19T02:29:33.283Z,3.03
2019-03-19T02:32:00.565Z,2.80
2019-03-19T02:34:27.919Z,2.90
2019-03-19T02:36:55.224Z,2.83
2019-03-19T02:39:22.564Z,2.90
2019-03-19T02:41:50.344Z,2.73
2019-03-19T02:44:17.689Z,3.00
2019-03-19T02:46:45.164Z,3.07
2019-03-19T02:49:12.445Z,3.07
2019-03-19T02:51:39.784Z,3.00
2019-03-19T02:54:07.063Z,3.50
2019-03-19T02:56:34.404Z,3.40
2019-03-19T02:59:01.698Z,2.87
2019-03-19T03:01:29.038Z,2.80
2019-03-19T03:03:56.352Z,3.20
2019-03-19T03:06:23.633Z,3.50
2019-03-19T03:08:50.945Z,3.47
2019-03-19T03:11:18.232Z,3.43
2019-03-19T03:13:45.558Z,3.30
2019-03-19T03:16:12.860Z,3.30
2019-03-19T03:18:40.166Z,3.40
2019-03-19T03:21:07.455Z,3.27
2019-03-19T03:23:34.734Z,3.60
2019-03-19T03:26:01.978Z,3.90
2019-03-19T03:28:29.295Z,3.90
2019-03-19T03:30:56.642Z,3.70
2019-03-19T03:33:23.945Z,4.23
2019-03-19T03:35:51.201Z,3.60
2019-03-19T03:38:18.473Z,4.00
2019-03-19T03:40:45.762Z,3.37
2019-03-19T03:43:13.073Z,3.70
2019-03-19T03:45:40.410Z,3.67
2019-03-19T03:48:07.682Z,3.60
2019-03-19T03:50:35.000Z,3.60
2019-03-19T03:53:02.318Z,3.50
2019-03-19T03:55:31.259Z,3.70
2019-03-19T03:57:58.736Z,4.40
2019-03-19T04:00:26.014Z,4.50
2019-03-19T04:02:53.393Z,4.60
2019-03-19T04:05:20.719Z,4.67
2019-03-19T04:07:48.051Z,4.57
2019-03-19T04:10:15.403Z,5.20
2019-03-19T04:12:42.659Z,5.00
2019-03-19T04:15:10.629Z,5.37
2019-03-19T04:17:37.881Z,4.30
2019-03-19T04:20:07.036Z,5.00
2019-03-19T04:22:34.320Z,4.83
2019-03-19T04:25:01.723Z,4.97
2019-03-19T04:27:28.956Z,5.37
2019-03-19T04:29:56.249Z,5.40
2019-03-19T04:32:23.554Z,5.63
2019-03-19T04:34:50.856Z,4.93
2019-03-19T04:37:18.160Z,4.93
2019-03-19T04:39:45.436Z,5.23
2019-03-19T04:42:12.754Z,5.93
2019-03-19T04:44:40.034Z,5.47
2019-03-19T04:47:07.422Z,6.43
2019-03-19T04:49:34.705Z,5.87
2019-03-19T04:52:01.933Z,6.47
2019-03-19T04:54:29.251Z,5.70
2019-03-19T04:56:56.531Z,6.20
2019-03-19T04:59:23.839Z,6.20
2019-03-19T05:01:51.091Z,6.00
2019-03-19T05:04:18.370Z,5.07
2019-03-19T05:06:45.656Z,5.17
2019-03-19T05:09:13.019Z,5.40
2019-03-19T05:11:40.289Z,5.90
2019-03-19T05:14:07.593Z,6.03
2019-03-19T05:16:34.936Z,5.50
2019-03-19T05:19:02.231Z,6.90
2019-03-19T05:21:29.571Z,7.50
2019-03-19T05:23:56.880Z,6.67
2019-03-19T05:26:24.167Z,6.40
2019-03-19T05:28:51.461Z,7.10
2019-03-19T05:31:18.731Z,6.87
2019-03-19T05:33:46.055Z,6.47
2019-03-19T05:36:13.384Z,7.03
2019-03-19T05:38:41.252Z,7.20
2019-03-19T05:41:08.511Z,7.70
2019-03-19T05:43:35.871Z,8.20
2019-03-19T05:46:03.179Z,6.67
2019-03-19T05:48:30.519Z,7.03
2019-03-19T05:50:57.832Z,7.07
2019-03-19T05:53:25.101Z,7.57
2019-03-19T05:55:52.480Z,7.33
2019-03-19T05:58:19.771Z,7.60
2019-03-19T06:00:47.058Z,7.67
2019-03-19T06:03:14.423Z,8.07
2019-03-19T06:05:41.707Z,8.13
2019-03-19T06:08:09.075Z,8.73
2019-03-19T06:10:36.396Z,8.60
2019-03-19T06:13:03.871Z,7.60
2019-03-19T06:15:31.143Z,7.47
2019-03-19T06:17:58.493Z,7.93
2019-03-19T06:20:25.776Z,7.03
2019-03-19T06:22:53.103Z,7.37
2019-03-19T06:25:20.433Z,7.27
2019-03-19T06:27:47.703Z,7.70
2019-03-19T06:30:16.126Z,7.83
2019-03-19T06:32:43.443Z,7.93
2019-03-19T06:35:10.786Z,7.63
2019-03-19T06:37:38.102Z,7.67
2019-03-19T06:40:06.385Z,7.87
2019-03-19T06:42:33.658Z,8.07
2019-03-19T06:45:00.971Z,8.20
2019-03-19T06:47:28.396Z,8.13
2019-03-19T06:49:55.702Z,7.80
2019-03-19T06:52:23.023Z,7.50
2019-03-19T06:54:50.325Z,7.47
2019-03-19T06:57:17.664Z,8.20
2019-03-19T06:59:44.963Z,6.97
2019-03-19T07:02:12.293Z,6.57
2019-03-19T07:04:39.589Z,6.97
2019-03-19T07:07:06.903Z,8.60
2019-03-19T07:09:34.284Z,9.57
2019-03-19T07:12:01.825Z,9.57
2019-03-19T07:14:29.352Z,9.77
2019-03-19T07:16:56.664Z,9.93
2019-03-19T07:19:23.974Z,10.70
2019-03-19T07:21:51.264Z,11.03
2019-03-19T07:24:18.599Z,10.87
2019-03-19T07:26:45.895Z,13.97
2019-03-19T07:29:13.216Z,14.43
2019-03-19T07:31:40.523Z,15.07
2019-03-19T07:34:07.771Z,12.70
2019-03-19T07:36:35.083Z,13.63
2019-03-19T07:39:04.054Z,15.97
2019-03-19T07:41:31.355Z,9.70
2019-03-19T07:43:58.643Z,10.40
2019-03-19T07:46:25.983Z,9.30
2019-03-19T07:48:53.307Z,10.27
2019-03-19T07:51:20.640Z,11.30
2019-03-19T07:53:47.959Z,11.13
2019-03-19T07:56:15.273Z,11.77
2019-03-19T07:58:45.481Z,11.97
2019-03-19T08:01:11.788Z,12.03
2019-03-19T08:03:39.103Z,12.10
2019-03-19T08:06:06.387Z,12.20
2019-03-19T08:08:33.679Z,12.57
2019-03-19T08:11:00.998Z,11.17
2019-03-19T08:13:28.323Z,10.80
2019-03-19T08:15:55.623Z,10.47
2019-03-19T08:18:22.976Z,8.90
2019-03-19T08:20:50.351Z,9.90
2019-03-19T08:23:17.655Z,9.10
2019-03-19T08:25:44.997Z,9.50
2019-03-19T08:28:12.365Z,9.87
2019-03-19T08:30:39.705Z,9.40
2019-03-19T08:33:07.078Z,7.40
2019-03-19T08:35:34.513Z,6.77
2019-03-19T08:38:01.845Z,6.80
2019-03-19T08:40:29.182Z,7.23
2019-03-19T08:42:58.281Z,5.73
2019-03-19T08:45:25.935Z,3.30
2019-03-19T08:47:53.380Z,4.53
2019-03-19T08:50:20.803Z,2.70
2019-03-19T08:52:50.488Z,4.07
2019-03-19T08:55:17.819Z,4.53
2019-03-19T08:57:45.096Z,4.80
2019-03-19T09:00:14.844Z,4.60
2019-03-19T09:02:42.103Z,4.73
2019-03-19T09:05:09.906Z,4.90
2019-03-19T09:07:37.215Z,5.03
2019-03-19T09:10:05.414Z,5.73
2019-03-19T09:12:32.747Z,5.50
2019-03-19T09:15:00.171Z,5.20
2019-03-19T09:17:27.564Z,5.20
2019-03-19T09:19:54.903Z,5.33
2019-03-19T09:22:22.921Z,5.30
2019-03-19T09:24:50.555Z,5.10
2019-03-19T09:27:17.878Z,4.80
2019-03-19T09:29:45.117Z,4.97
2019-03-19T09:32:12.423Z,4.80
2019-03-19T09:34:39.744Z,5.13
2019-03-19T09:37:07.078Z,5.10
2019-03-19T09:39:34.415Z,4.60
2019-03-19T09:42:01.746Z,4.47
2019-03-19T09:44:29.050Z,4.97
2019-03-19T09:46:56.383Z,4.73
2019-03-19T09:49:23.710Z,4.60
2019-03-19T09:51:51.083Z,4.17
2019-03-19T09:54:18.425Z,4.00
2019-03-19T09:56:45.753Z,3.13
2019-03-19T09:59:13.123Z,2.60
2019-03-19T10:01:40.480Z,2.80
2019-03-19T10:04:07.864Z,3.00
2019-03-19T10:06:35.158Z,2.77
2019-03-19T10:09:04.461Z,3.23
2019-03-19T10:11:31.779Z,3.13
2019-03-19T10:13:59.103Z,3.37
2019-03-19T10:16:26.447Z,2.90
2019-03-19T10:18:53.845Z,2.40
2019-03-19T10:21:21.663Z,2.40
2019-03-19T10:23:48.995Z,2.80
2019-03-19T10:26:16.290Z,2.77
2019-03-19T10:28:43.687Z,2.20
2019-03-19T10:31:11.042Z,2.20
2019-03-19T10:33:38.403Z,2.00
2019-03-19T10:36:05.703Z,2.00
2019-03-19T10:38:33.031Z,2.60
2019-03-19T10:41:00.337Z,2.00
2019-03-19T10:43:27.643Z,1.80
2019-03-19T10:45:54.996Z,1.70
2019-03-19T10:48:22.297Z,1.93
2019-03-19T10:50:49.624Z,2.17
2019-03-19T10:53:17.013Z,2.17
2019-03-19T10:55:44.423Z,2.00
2019-03-19T10:58:11.696Z,1.90
2019-03-19T11:00:38.984Z,2.00
2019-03-19T11:03:06.858Z,2.07
2019-03-19T11:05:34.183Z,1.63
2019-03-19T11:08:01.524Z,1.80
2019-03-19T11:10:28.890Z,1.40
2019-03-19T11:12:56.184Z,1.40
2019-03-19T11:15:23.489Z,1.50
2019-03-19T11:17:50.824Z,1.90
2019-03-19T11:20:18.168Z,1.97
2019-03-19T11:22:45.566Z,2.07
2019-03-19T11:25:14.266Z,2.20
2019-03-19T11:27:41.655Z,1.60
2019-03-19T11:30:14.908Z,1.67
2019-03-19T11:32:42.230Z,1.80
2019-03-19T11:35:10.665Z,1.60
2019-03-19T11:37:37.965Z,2.13
2019-03-19T11:40:05.532Z,2.20
2019-03-19T11:42:32.975Z,2.93
2019-03-19T11:45:00.298Z,2.10
2019-03-19T11:47:27.649Z,2.47
2019-03-19T11:49:55.142Z,2.60
2019-03-19T11:52:22.510Z,2.47
2019-03-19T11:54:49.923Z,3.30
2019-03-19T11:57:17.262Z,2.73
2019-03-19T11:59:44.623Z,3.13
2019-03-19T12:02:11.944Z,2.83
2019-03-19T12:04:39.224Z,2.43
2019-03-19T12:07:06.624Z,2.60
2019-03-19T12:09:33.996Z,2.70
2019-03-19T12:12:01.344Z,2.47
2019-03-19T12:14:28.675Z,2.30
2019-03-19T12:16:56.009Z,2.67
2019-03-19T12:19:23.373Z,2.77
2019-03-19T12:21:50.743Z,2.67
2019-03-19T12:24:18.084Z,3.03
2019-03-19T12:26:45.371Z,2.93
2019-03-19T12:29:12.791Z,3.13
2019-03-19T12:31:40.110Z,3.20
2019-03-19T12:34:07.433Z,3.10
2019-03-19T12:36:34.732Z,3.20
2019-03-19T12:39:02.212Z,2.47
2019-03-19T12:41:29.559Z,2.90
2019-03-19T12:43:56.858Z,3.00
2019-03-19T12:46:24.184Z,2.77
2019-03-19T12:48:54.210Z,2.53
2019-03-19T12:51:20.825Z,2.17
2019-03-19T12:53:48.231Z,2.17
2019-03-19T12:56:15.534Z,2.17
2019-03-19T12:58:42.821Z,2.70
2019-03-19T13:01:10.413Z,2.57
2019-03-19T13:03:37.718Z,2.40
2019-03-19T13:06:05.084Z,2.50
2019-03-19T13:08:32.396Z,2.27
2019-03-19T13:10:59.724Z,2.20
2019-03-19T13:13:27.016Z,2.03
2019-03-19T13:15:54.304Z,1.87
2019-03-19T13:18:21.646Z,1.90
2019-03-19T13:20:48.926Z,1.60
2019-03-19T13:23:16.279Z,1.70
2019-03-19T13:25:43.600Z,2.00
2019-03-19T13:28:10.968Z,1.63
2019-03-19T13:30:44.925Z,1.67
2019-03-19T13:33:07.503Z,2.10
2019-03-19T13:35:34.830Z,1.97
2019-03-19T13:38:02.139Z,1.90
2019-03-19T13:40:29.450Z,2.10
2019-03-19T13:42:56.803Z,1.80
2019-03-19T13:45:24.105Z,1.83
2019-03-19T13:47:51.542Z,1.50
2019-03-19T13:50:18.858Z,1.87
2019-03-19T13:52:46.268Z,1.70
2019-03-19T13:55:14.463Z,2.10
2019-03-19T13:57:41.844Z,2.00
2019-03-19T14:00:11.084Z,2.37
2019-03-19T14:02:39.021Z,2.57
2019-03-19T14:05:07.207Z,2.20
2019-03-19T14:07:34.553Z,1.60
2019-03-19T14:10:02.063Z,1.90
2019-03-19T14:12:29.871Z,1.77
2019-03-19T14:14:57.233Z,1.97
2019-03-19T14:17:25.055Z,2.27
2019-03-19T14:19:52.401Z,2.17
2019-03-19T14:22:19.793Z,2.10
2019-03-19T14:24:47.168Z,2.10
2019-03-19T14:27:14.586Z,2.30
2019-03-19T14:29:41.998Z,2.50
2019-03-19T14:32:09.405Z,2.47
2019-03-19T14:34:36.744Z,2.13
2019-03-19T14:37:04.121Z,2.20
2019-03-19T14:39:31.440Z,2.53
2019-03-19T14:41:58.828Z,2.73
2019-03-19T14:44:26.203Z,2.30
2019-03-19T14:46:53.499Z,2.20
2019-03-19T14:49:22.167Z,2.23
2019-03-19T14:51:49.523Z,2.60
2019-03-19T14:54:16.864Z,2.10
2019-03-19T14:56:44.595Z,2.00
2019-03-19T14:59:13.492Z,2.20
2019-03-19T15:01:41.316Z,2.23
2019-03-19T15:04:08.517Z,2.20
2019-03-19T15:06:36.132Z,2.33
2019-03-19T15:09:08.560Z,2.10
2019-03-19T15:11:36.125Z,2.60
2019-03-19T15:14:03.649Z,2.57
2019-03-19T15:16:31.604Z,2.43
2019-03-19T15:19:00.273Z,2.50
2019-03-19T15:21:27.953Z,2.70
2019-03-19T15:23:55.705Z,2.40
2019-03-19T15:26:23.359Z,1.97
2019-03-19T15:28:50.947Z,1.87
2019-03-19T15:31:18.665Z,2.00
2019-03-19T15:33:46.335Z,2.37
2019-03-19T15:36:13.960Z,2.47
2019-03-19T15:38:41.605Z,2.60
2019-03-19T15:41:09.060Z,2.83
2019-03-19T15:43:36.593Z,3.10
2019-03-19T15:46:04.251Z,2.77
2019-03-19T15:48:31.688Z,3.10
2019-03-19T15:50:59.270Z,3.07
2019-03-19T15:53:27.747Z,3.37
2019-03-19T15:55:55.304Z,3.33
2019-03-19T15:58:22.845Z,2.97
2019-03-19T16:00:50.340Z,3.10
2019-03-19T16:03:17.835Z,2.83
2019-03-19T16:05:45.536Z,2.90
2019-03-19T16:08:13.246Z,3.40
2019-03-19T16:10:40.651Z,3.37
2019-03-19T16:13:08.160Z,3.60
2019-03-19T16:15:35.703Z,3.30
2019-03-19T16:18:03.266Z,3.40
2019-03-19T16:20:30.799Z,3.40
2019-03-19T16:22:58.431Z,2.90
2019-03-19T16:25:25.966Z,3.10
2019-03-19T16:27:53.567Z,3.47
2019-03-19T16:30:21.384Z,3.40
2019-03-19T16:32:49.262Z,3.87
2019-03-19T16:35:16.938Z,3.77
2019-03-19T16:37:44.599Z,4.20
2019-03-19T16:40:14.872Z,4.00
2019-03-19T16:42:42.618Z,4.00
2019-03-19T16:45:10.251Z,3.87
2019-03-19T16:47:37.902Z,4.63
2019-03-19T16:50:06.091Z,4.00
2019-03-19T16:52:33.688Z,4.07
2019-03-19T16:55:01.308Z,3.80
2019-03-19T16:57:28.991Z,3.53
2019-03-19T16:59:56.604Z,6.70
2019-03-19T17:02:24.257Z,4.50
2019-03-19T17:04:51.928Z,4.17
2019-03-19T17:07:19.428Z,4.37
2019-03-19T17:09:47.052Z,5.63
2019-03-19T17:12:14.700Z,4.27
2019-03-19T17:14:42.460Z,5.80
2019-03-19T17:17:11.691Z,4.83
2019-03-19T17:19:40.334Z,3.73
2019-03-19T17:22:08.006Z,4.53
2019-03-19T17:24:35.650Z,3.33
2019-03-19T17:27:03.892Z,4.30
2019-03-19T17:29:31.685Z,3.63
2019-03-19T17:31:59.325Z,3.30
2019-03-19T17:34:27.496Z,3.80
2019-03-19T17:36:56.430Z,4.00
2019-03-19T17:39:24.097Z,3.10
2019-03-19T17:41:52.220Z,3.43
2019-03-19T17:44:19.881Z,3.20
2019-03-19T17:46:47.520Z,3.53
2019-03-19T17:49:15.189Z,3.30
2019-03-19T17:51:42.900Z,3.10
2019-03-19T17:54:10.938Z,3.03
2019-03-19T17:56:38.666Z,3.00
2019-03-19T17:59:06.320Z,2.87
2019-03-19T18:01:35.985Z,3.37
2019-03-19T18:04:06.643Z,3.63
2019-03-19T18:06:34.279Z,4.17
2019-03-19T18:09:02.004Z,4.30
2019-03-19T18:11:29.923Z,4.00
2019-03-19T18:13:57.810Z,4.03
2019-03-19T18:16:25.471Z,4.27
2019-03-19T18:18:53.062Z,4.07
2019-03-19T18:21:20.708Z,3.90
2019-03-19T18:23:48.361Z,3.80
2019-03-19T18:26:16.102Z,4.40
2019-03-19T18:28:43.936Z,3.80
2019-03-19T18:31:11.588Z,3.80
2019-03-19T18:33:39.374Z,4.70
2019-03-19T18:36:07.023Z,4.43
2019-03-19T18:38:34.708Z,4.23
2019-03-19T18:41:02.478Z,4.27
2019-03-19T18:43:30.309Z,4.73
2019-03-19T18:45:57.949Z,5.00
2019-03-19T18:48:25.599Z,4.90
2019-03-19T18:50:53.498Z,4.27
2019-03-19T18:53:21.322Z,3.80
2019-03-19T18:55:49.485Z,4.47
2019-03-19T18:58:17.199Z,4.00
2019-03-19T19:00:45.213Z,4.13
2019-03-19T19:03:13.786Z,3.70
2019-03-19T19:05:42.812Z,3.70
2019-03-19T19:08:10.892Z,3.63
2019-03-19T19:10:39.122Z,3.83
2019-03-19T19:13:06.785Z,3.57
2019-03-19T19:15:35.112Z,3.37
2019-03-19T19:18:04.706Z,3.30
2019-03-19T19:20:34.533Z,3.17
2019-03-19T19:23:03.053Z,2.93
2019-03-19T19:25:30.979Z,2.97
2019-03-19T19:28:00.176Z,2.90
2019-03-19T19:30:28.542Z,3.00
2019-03-19T19:33:01.948Z,2.83
2019-03-19T19:35:26.267Z,2.50
2019-03-19T19:37:54.419Z,2.90
2019-03-19T19:40:22.332Z,2.53
2019-03-19T19:42:50.141Z,2.70
2019-03-19T19:45:18.175Z,2.30
2019-03-19T19:47:46.039Z,2.50
2019-03-19T19:50:14.356Z,2.60
2019-03-19T19:52:42.428Z,2.53
2019-03-19T19:55:10.685Z,2.50
2019-03-19T19:57:39.150Z,2.40
2019-03-19T20:00:10.758Z,2.47
2019-03-19T20:02:38.662Z,2.30
2019-03-19T20:05:08.267Z,2.60
2019-03-19T20:07:35.974Z,2.83
2019-03-19T20:10:04.958Z,2.70
2019-03-19T20:12:32.839Z,2.90
2019-03-19T20:15:00.978Z,2.30
2019-03-19T20:17:29.395Z,2.63
2019-03-19T20:19:57.425Z,3.00
2019-03-19T20:22:25.131Z,3.00
2019-03-19T20:24:52.771Z,2.57
2019-03-19T20:27:20.431Z,2.70
2019-03-19T20:29:48.146Z,3.13
2019-03-19T20:32:16.315Z,3.57
2019-03-19T20:34:44.370Z,3.40
2019-03-19T20:37:12.240Z,3.23
2019-03-19T20:39:40.122Z,3.37
2019-03-19T20:42:07.887Z,3.30
2019-03-19T20:44:35.631Z,3.30
2019-03-19T20:47:05.130Z,3.27
2019-03-19T20:49:32.875Z,3.20
2019-03-19T20:52:00.679Z,3.07
2019-03-19T20:54:29.879Z,2.80
2019-03-19T20:56:57.636Z,2.90
2019-03-19T20:59:25.307Z,2.60
2019-03-19T21:01:53.304Z,3.33
2019-03-19T21:04:21.060Z,3.03
2019-03-19T21:06:51.263Z,3.33
2019-03-19T21:09:18.946Z,3.40
2019-03-19T21:11:46.639Z,2.80
2019-03-19T21:14:14.332Z,3.30
2019-03-19T21:16:42.139Z,2.47
2019-03-19T21:19:11.121Z,2.33
2019-03-19T21:21:38.765Z,3.07
2019-03-19T21:24:06.623Z,2.70
2019-03-19T21:26:34.386Z,2.70
2019-03-19T21:29:05.012Z,2.90
2019-03-19T21:31:32.823Z,2.90
2019-03-19T21:34:00.622Z,3.30
2019-03-19T21:36:28.334Z,3.30
2019-03-19T21:38:55.990Z,3.80
2019-03-19T21:41:23.618Z,3.70
2019-03-19T21:43:51.199Z,3.37
2019-03-19T21:46:18.861Z,3.20
2019-03-19T21:48:46.346Z,3.40
2019-03-19T21:51:13.894Z,4.27
2019-03-19T21:53:41.505Z,4.43
2019-03-19T21:56:09.262Z,4.13
2019-03-19T21:58:36.690Z,4.37
2019-03-19T22:01:04.351Z,3.80
2019-03-19T22:03:31.797Z,3.33
2019-03-19T22:05:59.243Z,3.50
2019-03-19T22:08:26.719Z,3.73
2019-03-19T22:10:54.122Z,3.67
2019-03-19T22:13:21.499Z,3.90
2019-03-19T22:15:48.898Z,4.17
2019-03-19T22:18:16.228Z,3.97
2019-03-19T22:20:43.559Z,3.70
2019-03-19T22:23:10.857Z,3.87
2019-03-19T22:25:38.242Z,3.73
2019-03-19T22:28:05.573Z,3.80
2019-03-19T22:30:32.992Z,3.63
2019-03-19T22:33:00.331Z,3.97
2019-03-19T22:35:27.708Z,4.00
2019-03-19T22:37:55.386Z,3.97
2019-03-19T22:40:22.727Z,4.17
2019-03-19T22:42:50.077Z,4.20
2019-03-19T22:45:17.413Z,3.80
2019-03-19T22:47:44.705Z,3.77
2019-03-19T22:50:12.832Z,3.33
2019-03-19T22:52:40.226Z,3.30
2019-03-19T22:55:07.726Z,3.13
2019-03-19T22:57:35.111Z,3.03
2019-03-19T23:00:02.703Z,3.10
2019-03-19T23:02:30.073Z,3.07
2019-03-19T23:04:57.384Z,3.13
2019-03-19T23:07:26.986Z,3.27
2019-03-19T23:09:54.309Z,2.93
2019-03-19T23:12:21.655Z,2.80
2019-03-19T23:14:48.953Z,2.53
2019-03-19T23:17:16.284Z,2.87
2019-03-19T23:19:43.610Z,3.23
2019-03-19T23:22:10.960Z,3.60
2019-03-19T23:24:38.331Z,3.13
2019-03-19T23:27:05.757Z,3.13
2019-03-19T23:29:33.103Z,3.20
2019-03-19T23:32:00.427Z,3.70
2019-03-19T23:34:37.918Z,3.70
2019-03-19T23:36:56.971Z,3.60
2019-03-19T23:39:24.304Z,3.37
2019-03-19T23:41:51.683Z,3.40
2019-03-19T23:44:19.042Z,3.00
2019-03-19T23:46:46.391Z,3.30
2019-03-19T23:49:13.791Z,3.30
2019-03-19T23:51:41.124Z,2.83
2019-03-19T23:54:08.428Z,2.90
2019-03-19T23:56:35.802Z,3.60
2019-03-19T23:59:03.165Z,3.70
